Аэропорт: Богашево. Томск

ICAO: UNTT

METAR:
2022-06-26 10:30:00
UNTT 261030Z 19008MPS CAVOK 29/19 Q0993 R21/190050 NOSIG RMK QFE730
METAR:
2022-06-26 08:00:00
TAF UNTT 260800Z 2609/2618 18005G12MPS 9999 BKN030CB TEMPO 2609/2615 14007G17MPS -TSRA BKN016CB BECMG 2615/2617 23003G08MPS